METAR Data
IDs: Format: Raw Decoded Include TAF

Data at: 1430 UTC 10 Jul 2020

METAR for:LFQA (Reims/Prunay Aprt, --, FR)
Text:LFQA 101400Z AUTO 29010KT 250V330 9999 FEW042 SCT078 BKN190 23/11 Q1016
Temperature: 23.0°C ( 73°F)
Dewpoint: 11.0°C ( 52°F) [RH = 47%]
Pressure (altimeter):30.00 inches Hg (1016.0 mb)
Winds:from the WNW (290 degrees) at 12 MPH (10 knots; 5.1 m/s)
Visibility:6 or more sm (10+ km)
Ceiling:19000 feet AGL
Clouds: few clouds at 4200 feet AGL, scattered clouds at 7800 feet AGL, broken clouds at 19000 feet AGL

TAF for:LFQA (Reims/Prunay Aprt, --, FR)
Text:No data found